sensor_id;sensor_type;location;lat;lon;timestamp;P1;durP1;ratioP1;P2;durP2;ratioP2
58621;SDS011;44389;51.578;5.456;2022-07-12T00:01:02;20.13;;;13.73;;
58621;SDS011;44389;51.578;5.456;2022-07-12T00:03:28;22.23;;;15.15;;
58621;SDS011;44389;51.578;5.456;2022-07-12T00:05:53;21.95;;;17.13;;
58621;SDS011;44389;51.578;5.456;2022-07-12T00:08:19;23.95;;;16.40;;
58621;SDS011;44389;51.578;5.456;2022-07-12T00:10:44;20.02;;;14.77;;
58621;SDS011;44389;51.578;5.456;2022-07-12T00:13:09;20.13;;;14.38;;
58621;SDS011;44389;51.578;5.456;2022-07-12T00:15:35;22.17;;;16.25;;
58621;SDS011;44389;51.578;5.456;2022-07-12T00:18:01;27.13;;;19.05;;
58621;SDS011;44389;51.578;5.456;2022-07-12T00:20:26;27.42;;;17.00;;
58621;SDS011;44389;51.578;5.456;2022-07-12T00:22:52;17.85;;;12.20;;
58621;SDS011;44389;51.578;5.456;2022-07-12T00:25:17;16.98;;;11.75;;
58621;SDS011;44389;51.578;5.456;2022-07-12T00:27:42;17.25;;;11.02;;
58621;SDS011;44389;51.578;5.456;2022-07-12T00:30:08;18.02;;;12.80;;
58621;SDS011;44389;51.578;5.456;2022-07-12T00:32:33;14.57;;;11.20;;
58621;SDS011;44389;51.578;5.456;2022-07-12T00:34:59;18.48;;;11.93;;
58621;SDS011;44389;51.578;5.456;2022-07-12T00:37:24;16.83;;;11.50;;
58621;SDS011;44389;51.578;5.456;2022-07-12T00:39:50;19.63;;;11.75;;
58621;SDS011;44389;51.578;5.456;2022-07-12T00:42:15;19.77;;;14.65;;
58621;SDS011;44389;51.578;5.456;2022-07-12T00:44:41;20.30;;;14.40;;
58621;SDS011;44389;51.578;5.456;2022-07-12T00:47:06;32.92;;;18.25;;
58621;SDS011;44389;51.578;5.456;2022-07-12T00:49:31;23.20;;;16.65;;
58621;SDS011;44389;51.578;5.456;2022-07-12T00:51:57;21.27;;;14.07;;
58621;SDS011;44389;51.578;5.456;2022-07-12T00:54:26;18.33;;;12.88;;
58621;SDS011;44389;51.578;5.456;2022-07-12T00:56:51;16.63;;;12.10;;
58621;SDS011;44389;51.578;5.456;2022-07-12T00:59:16;18.48;;;12.20;;
58621;SDS011;44389;51.578;5.456;2022-07-12T01:01:42;17.13;;;12.23;;
58621;SDS011;44389;51.578;5.456;2022-07-12T01:04:07;21.05;;;16.02;;
58621;SDS011;44389;51.578;5.456;2022-07-12T01:06:33;21.50;;;15.23;;
58621;SDS011;44389;51.578;5.456;2022-07-12T01:09:00;15.60;;;12.63;;
58621;SDS011;44389;51.578;5.456;2022-07-12T01:11:26;22.40;;;15.55;;
58621;SDS011;44389;51.578;5.456;2022-07-12T01:13:52;19.25;;;14.55;;
58621;SDS011;44389;51.578;5.456;2022-07-12T01:16:18;22.70;;;17.27;;
58621;SDS011;44389;51.578;5.456;2022-07-12T01:18:44;29.13;;;17.30;;
58621;SDS011;44389;51.578;5.456;2022-07-12T01:21:10;25.60;;;15.98;;
58621;SDS011;44389;51.578;5.456;2022-07-12T01:23:40;24.35;;;16.27;;
58621;SDS011;44389;51.578;5.456;2022-07-12T01:26:06;19.80;;;14.88;;
58621;SDS011;44389;51.578;5.456;2022-07-12T01:28:32;21.38;;;13.90;;
58621;SDS011;44389;51.578;5.456;2022-07-12T01:30:57;20.90;;;14.38;;
58621;SDS011;44389;51.578;5.456;2022-07-12T01:33:24;21.88;;;14.35;;
58621;SDS011;44389;51.578;5.456;2022-07-12T01:35:50;19.98;;;13.93;;
58621;SDS011;44389;51.578;5.456;2022-07-12T01:38:15;16.05;;;12.77;;
58621;SDS011;44389;51.578;5.456;2022-07-12T01:40:41;19.48;;;14.13;;
58621;SDS011;44389;51.578;5.456;2022-07-12T01:43:06;19.52;;;15.15;;
58621;SDS011;44389;51.578;5.456;2022-07-12T01:45:31;17.73;;;13.07;;
58621;SDS011;44389;51.578;5.456;2022-07-12T01:47:57;24.10;;;14.65;;
58621;SDS011;44389;51.578;5.456;2022-07-12T01:50:25;21.70;;;15.57;;
58621;SDS011;44389;51.578;5.456;2022-07-12T01:52:51;25.08;;;16.30;;
58621;SDS011;44389;51.578;5.456;2022-07-12T01:55:17;23.00;;;16.52;;
58621;SDS011;44389;51.578;5.456;2022-07-12T01:57:43;24.15;;;15.52;;
58621;SDS011;44389;51.578;5.456;2022-07-12T02:00:10;21.98;;;15.25;;
58621;SDS011;44389;51.578;5.456;2022-07-12T02:02:36;20.20;;;14.50;;
58621;SDS011;44389;51.578;5.456;2022-07-12T02:05:03;17.85;;;14.07;;
58621;SDS011;44389;51.578;5.456;2022-07-12T02:07:29;17.05;;;13.48;;
58621;SDS011;44389;51.578;5.456;2022-07-12T02:09:55;21.92;;;16.33;;
58621;SDS011;44389;51.578;5.456;2022-07-12T02:12:20;19.52;;;14.35;;
58621;SDS011;44389;51.578;5.456;2022-07-12T02:14:45;26.00;;;17.10;;
58621;SDS011;44389;51.578;5.456;2022-07-12T02:17:11;21.40;;;15.13;;
58621;SDS011;44389;51.578;5.456;2022-07-12T02:19:36;23.35;;;15.18;;
58621;SDS011;44389;51.578;5.456;2022-07-12T02:22:01;20.58;;;15.45;;
58621;SDS011;44389;51.578;5.456;2022-07-12T02:24:27;23.48;;;16.83;;
58621;SDS011;44389;51.578;5.456;2022-07-12T02:26:52;15.88;;;11.57;;
58621;SDS011;44389;51.578;5.456;2022-07-12T02:29:17;17.27;;;12.93;;
58621;SDS011;44389;51.578;5.456;2022-07-12T02:31:43;15.68;;;12.60;;
58621;SDS011;44389;51.578;5.456;2022-07-12T02:34:08;15.02;;;11.85;;
58621;SDS011;44389;51.578;5.456;2022-07-12T02:36:33;18.02;;;13.48;;
58621;SDS011;44389;51.578;5.456;2022-07-12T02:39:02;29.15;;;20.10;;
58621;SDS011;44389;51.578;5.456;2022-07-12T02:41:29;30.10;;;20.60;;
58621;SDS011;44389;51.578;5.456;2022-07-12T02:43:55;33.88;;;22.10;;
58621;SDS011;44389;51.578;5.456;2022-07-12T02:46:21;28.40;;;18.77;;
58621;SDS011;44389;51.578;5.456;2022-07-12T02:48:46;21.85;;;16.20;;
58621;SDS011;44389;51.578;5.456;2022-07-12T02:51:11;19.48;;;14.23;;
58621;SDS011;44389;51.578;5.456;2022-07-12T02:53:37;22.73;;;13.95;;
58621;SDS011;44389;51.578;5.456;2022-07-12T02:56:02;22.20;;;13.18;;
58621;SDS011;44389;51.578;5.456;2022-07-12T02:58:28;19.70;;;14.55;;
58621;SDS011;44389;51.578;5.456;2022-07-12T03:00:54;22.30;;;15.30;;
58621;SDS011;44389;51.578;5.456;2022-07-12T03:03:20;23.95;;;15.82;;
58621;SDS011;44389;51.578;5.456;2022-07-12T03:05:46;21.90;;;16.38;;
58621;SDS011;44389;51.578;5.456;2022-07-12T03:08:11;20.35;;;15.23;;
58621;SDS011;44389;51.578;5.456;2022-07-12T03:10:37;22.27;;;16.92;;
58621;SDS011;44389;51.578;5.456;2022-07-12T03:13:03;20.13;;;15.23;;
58621;SDS011;44389;51.578;5.456;2022-07-12T03:15:29;26.02;;;16.30;;
58621;SDS011;44389;51.578;5.456;2022-07-12T03:17:55;25.33;;;17.92;;
58621;SDS011;44389;51.578;5.456;2022-07-12T03:20:21;26.00;;;17.20;;
58621;SDS011;44389;51.578;5.456;2022-07-12T03:22:46;24.35;;;16.65;;
58621;SDS011;44389;51.578;5.456;2022-07-12T03:25:14;22.67;;;14.75;;
58621;SDS011;44389;51.578;5.456;2022-07-12T03:27:40;22.77;;;15.02;;
58621;SDS011;44389;51.578;5.456;2022-07-12T03:30:06;23.48;;;14.63;;
58621;SDS011;44389;51.578;5.456;2022-07-12T03:32:32;20.75;;;15.73;;
58621;SDS011;44389;51.578;5.456;2022-07-12T03:34:57;19.85;;;14.65;;
58621;SDS011;44389;51.578;5.456;2022-07-12T03:37:23;23.98;;;16.00;;
58621;SDS011;44389;51.578;5.456;2022-07-12T03:39:48;22.80;;;15.77;;
58621;SDS011;44389;51.578;5.456;2022-07-12T03:42:13;22.73;;;15.40;;
58621;SDS011;44389;51.578;5.456;2022-07-12T03:44:39;28.13;;;19.77;;
58621;SDS011;44389;51.578;5.456;2022-07-12T03:47:04;24.80;;;17.75;;
58621;SDS011;44389;51.578;5.456;2022-07-12T03:49:29;21.10;;;15.27;;
58621;SDS011;44389;51.578;5.456;2022-07-12T03:51:55;18.05;;;13.73;;
58621;SDS011;44389;51.578;5.456;2022-07-12T03:54:20;19.95;;;13.75;;
58621;SDS011;44389;51.578;5.456;2022-07-12T03:56:45;29.50;;;17.15;;
58621;SDS011;44389;51.578;5.456;2022-07-12T03:59:29;24.67;;;17.58;;
58621;SDS011;44389;51.578;5.456;2022-07-12T04:01:54;26.30;;;16.35;;
58621;SDS011;44389;51.578;5.456;2022-07-12T04:04:19;21.38;;;14.73;;
58621;SDS011;44389;51.578;5.456;2022-07-12T04:06:45;19.55;;;13.45;;
58621;SDS011;44389;51.578;5.456;2022-07-12T04:09:11;25.80;;;16.95;;
58621;SDS011;44389;51.578;5.456;2022-07-12T04:11:36;33.92;;;21.58;;
58621;SDS011;44389;51.578;5.456;2022-07-12T04:14:02;39.85;;;25.08;;
58621;SDS011;44389;51.578;5.456;2022-07-12T04:16:27;25.85;;;17.83;;
58621;SDS011;44389;51.578;5.456;2022-07-12T04:18:54;29.38;;;17.88;;
58621;SDS011;44389;51.578;5.456;2022-07-12T04:21:20;26.75;;;18.27;;
58621;SDS011;44389;51.578;5.456;2022-07-12T04:23:45;31.48;;;20.33;;
58621;SDS011;44389;51.578;5.456;2022-07-12T04:26:10;40.67;;;22.30;;
58621;SDS011;44389;51.578;5.456;2022-07-12T04:28:36;29.60;;;20.25;;
58621;SDS011;44389;51.578;5.456;2022-07-12T04:31:01;35.45;;;20.85;;
58621;SDS011;44389;51.578;5.456;2022-07-12T04:33:27;31.80;;;21.67;;
58621;SDS011;44389;51.578;5.456;2022-07-12T04:35:52;32.40;;;22.67;;
58621;SDS011;44389;51.578;5.456;2022-07-12T04:38:17;33.92;;;22.67;;
58621;SDS011;44389;51.578;5.456;2022-07-12T04:40:43;34.28;;;22.23;;
58621;SDS011;44389;51.578;5.456;2022-07-12T04:43:08;37.38;;;23.48;;
58621;SDS011;44389;51.578;5.456;2022-07-12T04:45:33;34.05;;;22.00;;
58621;SDS011;44389;51.578;5.456;2022-07-12T04:47:58;39.40;;;26.80;;
58621;SDS011;44389;51.578;5.456;2022-07-12T04:50:24;39.65;;;26.70;;
58621;SDS011;44389;51.578;5.456;2022-07-12T04:52:49;43.47;;;29.30;;
58621;SDS011;44389;51.578;5.456;2022-07-12T04:55:15;51.55;;;31.90;;
58621;SDS011;44389;51.578;5.456;2022-07-12T04:57:40;55.47;;;33.72;;
58621;SDS011;44389;51.578;5.456;2022-07-12T05:00:05;51.72;;;32.60;;
58621;SDS011;44389;51.578;5.456;2022-07-12T05:02:32;54.50;;;32.53;;
58621;SDS011;44389;51.578;5.456;2022-07-12T05:04:57;55.53;;;35.50;;
58621;SDS011;44389;51.578;5.456;2022-07-12T05:07:23;63.22;;;39.90;;
58621;SDS011;44389;51.578;5.456;2022-07-12T05:09:48;71.40;;;42.90;;
58621;SDS011;44389;51.578;5.456;2022-07-12T05:12:13;74.68;;;44.67;;
58621;SDS011;44389;51.578;5.456;2022-07-12T05:14:39;87.72;;;50.83;;
58621;SDS011;44389;51.578;5.456;2022-07-12T05:17:04;107.00;;;59.72;;
58621;SDS011;44389;51.578;5.456;2022-07-12T05:19:29;110.13;;;62.53;;
58621;SDS011;44389;51.578;5.456;2022-07-12T05:21:54;109.57;;;63.50;;
58621;SDS011;44389;51.578;5.456;2022-07-12T05:24:20;111.13;;;65.30;;
58621;SDS011;44389;51.578;5.456;2022-07-12T05:26:45;118.75;;;67.10;;
58621;SDS011;44389;51.578;5.456;2022-07-12T05:29:10;111.97;;;66.57;;
58621;SDS011;44389;51.578;5.456;2022-07-12T05:31:35;113.75;;;65.40;;
58621;SDS011;44389;51.578;5.456;2022-07-12T05:34:01;125.07;;;66.57;;
58621;SDS011;44389;51.578;5.456;2022-07-12T05:36:26;117.32;;;66.70;;
58621;SDS011;44389;51.578;5.456;2022-07-12T05:38:52;112.93;;;66.30;;
58621;SDS011;44389;51.578;5.456;2022-07-12T05:41:17;102.97;;;59.78;;
58621;SDS011;44389;51.578;5.456;2022-07-12T05:43:43;101.05;;;61.67;;
58621;SDS011;44389;51.578;5.456;2022-07-12T05:46:09;92.90;;;55.92;;
58621;SDS011;44389;51.578;5.456;2022-07-12T05:48:34;82.55;;;52.70;;
58621;SDS011;44389;51.578;5.456;2022-07-12T05:51:00;83.72;;;49.63;;
58621;SDS011;44389;51.578;5.456;2022-07-12T05:53:45;73.32;;;47.63;;
58621;SDS011;44389;51.578;5.456;2022-07-12T05:56:10;78.53;;;48.25;;
58621;SDS011;44389;51.578;5.456;2022-07-12T05:58:36;73.55;;;48.15;;
58621;SDS011;44389;51.578;5.456;2022-07-12T06:01:01;68.88;;;47.35;;
58621;SDS011;44389;51.578;5.456;2022-07-12T06:03:26;67.07;;;45.30;;
58621;SDS011;44389;51.578;5.456;2022-07-12T06:05:52;60.10;;;43.65;;
58621;SDS011;44389;51.578;5.456;2022-07-12T06:08:17;66.38;;;47.60;;
58621;SDS011;44389;51.578;5.456;2022-07-12T06:10:42;65.68;;;44.65;;
58621;SDS011;44389;51.578;5.456;2022-07-12T06:13:08;63.05;;;46.03;;
58621;SDS011;44389;51.578;5.456;2022-07-12T06:15:34;67.85;;;46.40;;
58621;SDS011;44389;51.578;5.456;2022-07-12T06:18:00;58.45;;;41.90;;
58621;SDS011;44389;51.578;5.456;2022-07-12T06:20:28;61.35;;;43.78;;
58621;SDS011;44389;51.578;5.456;2022-07-12T06:22:54;67.80;;;46.75;;
58621;SDS011;44389;51.578;5.456;2022-07-12T06:25:20;83.88;;;54.38;;
58621;SDS011;44389;51.578;5.456;2022-07-12T06:27:45;72.53;;;49.15;;
58621;SDS011;44389;51.578;5.456;2022-07-12T06:30:11;64.82;;;46.20;;
58621;SDS011;44389;51.578;5.456;2022-07-12T06:32:36;65.15;;;45.35;;
58621;SDS011;44389;51.578;5.456;2022-07-12T06:35:02;64.13;;;44.78;;
58621;SDS011;44389;51.578;5.456;2022-07-12T06:37:27;62.25;;;45.08;;
58621;SDS011;44389;51.578;5.456;2022-07-12T06:39:53;63.20;;;42.97;;
58621;SDS011;44389;51.578;5.456;2022-07-12T06:42:18;61.38;;;41.88;;
58621;SDS011;44389;51.578;5.456;2022-07-12T06:44:43;62.75;;;44.22;;
58621;SDS011;44389;51.578;5.456;2022-07-12T06:47:08;64.65;;;42.10;;
58621;SDS011;44389;51.578;5.456;2022-07-12T06:49:35;60.45;;;41.65;;
58621;SDS011;44389;51.578;5.456;2022-07-12T06:52:00;59.45;;;42.70;;
58621;SDS011;44389;51.578;5.456;2022-07-12T06:54:25;59.90;;;43.75;;
58621;SDS011;44389;51.578;5.456;2022-07-12T06:56:51;57.30;;;42.65;;
58621;SDS011;44389;51.578;5.456;2022-07-12T06:59:16;59.17;;;43.42;;
58621;SDS011;44389;51.578;5.456;2022-07-12T07:01:47;61.72;;;43.58;;
58621;SDS011;44389;51.578;5.456;2022-07-12T07:04:14;59.88;;;42.97;;
58621;SDS011;44389;51.578;5.456;2022-07-12T07:06:39;51.13;;;37.42;;
58621;SDS011;44389;51.578;5.456;2022-07-12T07:09:05;53.45;;;37.50;;
58621;SDS011;44389;51.578;5.456;2022-07-12T07:11:32;47.08;;;33.90;;
58621;SDS011;44389;51.578;5.456;2022-07-12T07:13:58;41.78;;;26.15;;
58621;SDS011;44389;51.578;5.456;2022-07-12T07:16:23;39.40;;;25.90;;
58621;SDS011;44389;51.578;5.456;2022-07-12T07:18:49;33.53;;;24.58;;
58621;SDS011;44389;51.578;5.456;2022-07-12T07:21:14;36.20;;;23.92;;
58621;SDS011;44389;51.578;5.456;2022-07-12T07:23:40;32.90;;;23.98;;
58621;SDS011;44389;51.578;5.456;2022-07-12T07:26:05;39.53;;;25.55;;
58621;SDS011;44389;51.578;5.456;2022-07-12T07:28:31;35.10;;;24.30;;
58621;SDS011;44389;51.578;5.456;2022-07-12T07:30:56;36.35;;;27.27;;
58621;SDS011;44389;51.578;5.456;2022-07-12T07:33:23;36.97;;;27.13;;
58621;SDS011;44389;51.578;5.456;2022-07-12T07:35:50;31.60;;;24.23;;
58621;SDS011;44389;51.578;5.456;2022-07-12T07:38:16;34.13;;;25.03;;
58621;SDS011;44389;51.578;5.456;2022-07-12T07:40:43;34.10;;;22.48;;
58621;SDS011;44389;51.578;5.456;2022-07-12T07:43:08;29.92;;;20.98;;
58621;SDS011;44389;51.578;5.456;2022-07-12T07:45:34;23.17;;;16.05;;
58621;SDS011;44389;51.578;5.456;2022-07-12T07:47:59;21.48;;;14.73;;
58621;SDS011;44389;51.578;5.456;2022-07-12T07:50:24;22.95;;;15.93;;
58621;SDS011;44389;51.578;5.456;2022-07-12T07:52:49;21.63;;;14.77;;
58621;SDS011;44389;51.578;5.456;2022-07-12T07:55:16;26.20;;;15.43;;
58621;SDS011;44389;51.578;5.456;2022-07-12T07:57:41;27.05;;;15.20;;
58621;SDS011;44389;51.578;5.456;2022-07-12T08:00:07;21.23;;;14.00;;
58621;SDS011;44389;51.578;5.456;2022-07-12T08:02:32;24.45;;;17.55;;
58621;SDS011;44389;51.578;5.456;2022-07-12T08:04:58;23.83;;;16.45;;
58621;SDS011;44389;51.578;5.456;2022-07-12T08:07:23;22.92;;;16.02;;
58621;SDS011;44389;51.578;5.456;2022-07-12T08:09:49;27.42;;;17.63;;
58621;SDS011;44389;51.578;5.456;2022-07-12T08:12:14;25.35;;;16.63;;
58621;SDS011;44389;51.578;5.456;2022-07-12T08:14:39;21.90;;;15.85;;
58621;SDS011;44389;51.578;5.456;2022-07-12T08:17:05;22.95;;;15.82;;
58621;SDS011;44389;51.578;5.456;2022-07-12T08:19:30;22.45;;;14.80;;
58621;SDS011;44389;51.578;5.456;2022-07-12T08:21:55;20.45;;;13.90;;
58621;SDS011;44389;51.578;5.456;2022-07-12T08:24:21;21.42;;;14.70;;
58621;SDS011;44389;51.578;5.456;2022-07-12T08:26:46;21.05;;;15.38;;
58621;SDS011;44389;51.578;5.456;2022-07-12T08:29:11;22.55;;;15.68;;
58621;SDS011;44389;51.578;5.456;2022-07-12T08:31:37;19.40;;;14.27;;
58621;SDS011;44389;51.578;5.456;2022-07-12T08:34:02;19.17;;;12.80;;
58621;SDS011;44389;51.578;5.456;2022-07-12T08:36:27;21.05;;;13.13;;
58621;SDS011;44389;51.578;5.456;2022-07-12T08:39:59;18.25;;;12.85;;
58621;SDS011;44389;51.578;5.456;2022-07-12T08:42:25;18.65;;;12.73;;
58621;SDS011;44389;51.578;5.456;2022-07-12T08:44:53;18.13;;;12.30;;
58621;SDS011;44389;51.578;5.456;2022-07-12T08:47:22;22.52;;;15.13;;
58621;SDS011;44389;51.578;5.456;2022-07-12T08:52:46;17.08;;;12.57;;
58621;SDS011;44389;51.578;5.456;2022-07-12T08:55:16;16.58;;;11.70;;
58621;SDS011;44389;51.578;5.456;2022-07-12T08:57:43;18.50;;;12.43;;
58621;SDS011;44389;51.578;5.456;2022-07-12T09:00:09;17.50;;;11.32;;
58621;SDS011;44389;51.578;5.456;2022-07-12T09:02:53;24.23;;;10.93;;
58621;SDS011;44389;51.578;5.456;2022-07-12T09:05:24;20.23;;;11.35;;
58621;SDS011;44389;51.578;5.456;2022-07-12T09:08:03;17.58;;;12.52;;
58621;SDS011;44389;51.578;5.456;2022-07-12T09:10:31;20.75;;;11.65;;
58621;SDS011;44389;51.578;5.456;2022-07-12T09:12:57;15.35;;;10.93;;
58621;SDS011;44389;51.578;5.456;2022-07-12T09:15:22;18.65;;;11.90;;
58621;SDS011;44389;51.578;5.456;2022-07-12T09:20:25;19.60;;;12.18;;
58621;SDS011;44389;51.578;5.456;2022-07-12T09:23:00;14.95;;;10.38;;
58621;SDS011;44389;51.578;5.456;2022-07-12T09:25:32;14.10;;;9.15;;
58621;SDS011;44389;51.578;5.456;2022-07-12T09:27:59;16.58;;;11.55;;
58621;SDS011;44389;51.578;5.456;2022-07-12T09:30:28;15.55;;;11.10;;
58621;SDS011;44389;51.578;5.456;2022-07-12T09:33:02;16.50;;;12.65;;
58621;SDS011;44389;51.578;5.456;2022-07-12T09:38:53;14.57;;;9.85;;
58621;SDS011;44389;51.578;5.456;2022-07-12T09:41:22;18.33;;;11.43;;
58621;SDS011;44389;51.578;5.456;2022-07-12T09:43:48;31.63;;;11.70;;
58621;SDS011;44389;51.578;5.456;2022-07-12T09:46:14;16.00;;;10.43;;
58621;SDS011;44389;51.578;5.456;2022-07-12T09:48:41;12.90;;;9.70;;
58621;SDS011;44389;51.578;5.456;2022-07-12T09:51:12;18.30;;;10.43;;
58621;SDS011;44389;51.578;5.456;2022-07-12T09:53:42;14.90;;;10.55;;
58621;SDS011;44389;51.578;5.456;2022-07-12T09:56:10;14.18;;;10.77;;
58621;SDS011;44389;51.578;5.456;2022-07-12T10:01:16;14.35;;;9.60;;
58621;SDS011;44389;51.578;5.456;2022-07-12T10:03:42;16.70;;;10.70;;
58621;SDS011;44389;51.578;5.456;2022-07-12T10:06:08;15.13;;;11.13;;
58621;SDS011;44389;51.578;5.456;2022-07-12T10:08:36;14.55;;;10.02;;
58621;SDS011;44389;51.578;5.456;2022-07-12T10:11:01;18.58;;;11.90;;
58621;SDS011;44389;51.578;5.456;2022-07-12T10:13:27;13.50;;;8.68;;
58621;SDS011;44389;51.578;5.456;2022-07-12T10:15:56;18.25;;;9.93;;
58621;SDS011;44389;51.578;5.456;2022-07-12T10:18:24;14.43;;;8.80;;
58621;SDS011;44389;51.578;5.456;2022-07-12T10:20:49;16.00;;;10.20;;
58621;SDS011;44389;51.578;5.456;2022-07-12T10:23:33;13.70;;;9.68;;
58621;SDS011;44389;51.578;5.456;2022-07-12T10:28:54;13.30;;;7.72;;
58621;SDS011;44389;51.578;5.456;2022-07-12T10:31:33;11.82;;;7.25;;
58621;SDS011;44389;51.578;5.456;2022-07-12T10:39:19;9.45;;;5.90;;
58621;SDS011;44389;51.578;5.456;2022-07-12T10:41:58;10.15;;;5.43;;
58621;SDS011;44389;51.578;5.456;2022-07-12T10:44:34;9.50;;;6.07;;
58621;SDS011;44389;51.578;5.456;2022-07-12T10:47:00;10.80;;;4.97;;
58621;SDS011;44389;51.578;5.456;2022-07-12T10:49:28;7.20;;;4.63;;
58621;SDS011;44389;51.578;5.456;2022-07-12T10:54:35;7.13;;;3.75;;
58621;SDS011;44389;51.578;5.456;2022-07-12T10:57:38;6.70;;;3.53;;
58621;SDS011;44389;51.578;5.456;2022-07-12T11:00:14;9.18;;;4.20;;
58621;SDS011;44389;51.578;5.456;2022-07-12T11:02:40;10.70;;;4.60;;
58621;SDS011;44389;51.578;5.456;2022-07-12T11:05:06;10.90;;;4.60;;
58621;SDS011;44389;51.578;5.456;2022-07-12T11:07:33;6.45;;;4.22;;
58621;SDS011;44389;51.578;5.456;2022-07-12T11:09:59;8.57;;;3.93;;
58621;SDS011;44389;51.578;5.456;2022-07-12T11:12:27;8.37;;;3.80;;
58621;SDS011;44389;51.578;5.456;2022-07-12T11:15:00;4.93;;;3.50;;
58621;SDS011;44389;51.578;5.456;2022-07-12T11:17:30;8.00;;;3.90;;
58621;SDS011;44389;51.578;5.456;2022-07-12T11:20:06;6.80;;;3.70;;
58621;SDS011;44389;51.578;5.456;2022-07-12T11:22:34;7.95;;;3.60;;
58621;SDS011;44389;51.578;5.456;2022-07-12T11:25:01;12.13;;;3.85;;
58621;SDS011;44389;51.578;5.456;2022-07-12T11:27:27;8.15;;;4.60;;
58621;SDS011;44389;51.578;5.456;2022-07-12T11:29:56;5.53;;;4.03;;
58621;SDS011;44389;51.578;5.456;2022-07-12T11:32:37;5.07;;;3.65;;
58621;SDS011;44389;51.578;5.456;2022-07-12T11:35:04;6.93;;;4.22;;
58621;SDS011;44389;51.578;5.456;2022-07-12T11:37:49;8.07;;;4.70;;
58621;SDS011;44389;51.578;5.456;2022-07-12T11:40:20;7.43;;;4.88;;
58621;SDS011;44389;51.578;5.456;2022-07-12T11:42:57;7.50;;;4.32;;
58621;SDS011;44389;51.578;5.456;2022-07-12T11:45:24;8.85;;;4.85;;
58621;SDS011;44389;51.578;5.456;2022-07-12T11:47:51;7.68;;;5.28;;
58621;SDS011;44389;51.578;5.456;2022-07-12T11:50:17;8.65;;;4.75;;
58621;SDS011;44389;51.578;5.456;2022-07-12T11:52:44;7.57;;;3.92;;
58621;SDS011;44389;51.578;5.456;2022-07-12T11:55:09;7.60;;;4.77;;
58621;SDS011;44389;51.578;5.456;2022-07-12T11:57:35;17.90;;;4.47;;
58621;SDS011;44389;51.578;5.456;2022-07-12T12:00:16;7.77;;;5.27;;
58621;SDS011;44389;51.578;5.456;2022-07-12T12:02:42;6.95;;;4.70;;
58621;SDS011;44389;51.578;5.456;2022-07-12T12:05:08;8.10;;;4.50;;
58621;SDS011;44389;51.578;5.456;2022-07-12T12:07:33;7.30;;;6.00;;
58621;SDS011;44389;51.578;5.456;2022-07-12T12:12:35;9.15;;;4.25;;
58621;SDS011;44389;51.578;5.456;2022-07-12T12:15:12;11.93;;;4.35;;
58621;SDS011;44389;51.578;5.456;2022-07-12T12:17:43;8.85;;;4.88;;
58621;SDS011;44389;51.578;5.456;2022-07-12T12:20:30;11.02;;;5.53;;
58621;SDS011;44389;51.578;5.456;2022-07-12T12:22:56;9.10;;;5.10;;
58621;SDS011;44389;51.578;5.456;2022-07-12T12:25:23;5.85;;;3.92;;
58621;SDS011;44389;51.578;5.456;2022-07-12T12:28:11;6.72;;;3.80;;
58621;SDS011;44389;51.578;5.456;2022-07-12T12:30:47;8.95;;;4.15;;
58621;SDS011;44389;51.578;5.456;2022-07-12T12:33:33;6.28;;;3.92;;
58621;SDS011;44389;51.578;5.456;2022-07-12T12:39:01;6.60;;;3.75;;
58621;SDS011;44389;51.578;5.456;2022-07-12T12:41:27;11.20;;;3.87;;
58621;SDS011;44389;51.578;5.456;2022-07-12T12:44:00;8.43;;;4.30;;
58621;SDS011;44389;51.578;5.456;2022-07-12T12:46:42;7.65;;;3.92;;
58621;SDS011;44389;51.578;5.456;2022-07-12T12:49:49;5.85;;;4.20;;
58621;SDS011;44389;51.578;5.456;2022-07-12T12:52:18;6.85;;;3.88;;
58621;SDS011;44389;51.578;5.456;2022-07-12T12:54:44;5.83;;;4.07;;
58621;SDS011;44389;51.578;5.456;2022-07-12T12:57:10;7.73;;;4.20;;
58621;SDS011;44389;51.578;5.456;2022-07-12T12:59:36;8.70;;;3.88;;
58621;SDS011;44389;51.578;5.456;2022-07-12T13:02:03;6.90;;;4.38;;
58621;SDS011;44389;51.578;5.456;2022-07-12T13:04:30;8.00;;;4.03;;
58621;SDS011;44389;51.578;5.456;2022-07-12T13:06:57;5.05;;;3.50;;
58621;SDS011;44389;51.578;5.456;2022-07-12T13:09:23;5.30;;;3.17;;
58621;SDS011;44389;51.578;5.456;2022-07-12T13:11:51;6.77;;;3.67;;
58621;SDS011;44389;51.578;5.456;2022-07-12T13:14:17;5.65;;;3.90;;
58621;SDS011;44389;51.578;5.456;2022-07-12T13:16:42;10.90;;;3.73;;
58621;SDS011;44389;51.578;5.456;2022-07-12T13:19:07;8.03;;;3.33;;
58621;SDS011;44389;51.578;5.456;2022-07-12T13:21:33;6.07;;;3.20;;
58621;SDS011;44389;51.578;5.456;2022-07-12T13:23:58;5.37;;;2.90;;
58621;SDS011;44389;51.578;5.456;2022-07-12T13:26:23;5.53;;;3.00;;
58621;SDS011;44389;51.578;5.456;2022-07-12T13:28:49;7.80;;;3.57;;
58621;SDS011;44389;51.578;5.456;2022-07-12T13:31:14;9.20;;;3.50;;
58621;SDS011;44389;51.578;5.456;2022-07-12T13:33:39;6.60;;;3.60;;
58621;SDS011;44389;51.578;5.456;2022-07-12T13:36:05;6.97;;;2.93;;
58621;SDS011;44389;51.578;5.456;2022-07-12T13:38:30;7.27;;;2.93;;
58621;SDS011;44389;51.578;5.456;2022-07-12T13:40:55;6.93;;;3.00;;
58621;SDS011;44389;51.578;5.456;2022-07-12T13:43:24;4.73;;;2.70;;
58621;SDS011;44389;51.578;5.456;2022-07-12T13:45:50;9.95;;;3.10;;
58621;SDS011;44389;51.578;5.456;2022-07-12T13:48:16;6.65;;;3.05;;
58621;SDS011;44389;51.578;5.456;2022-07-12T13:50:41;7.60;;;3.23;;
58621;SDS011;44389;51.578;5.456;2022-07-12T13:53:06;9.17;;;4.07;;
58621;SDS011;44389;51.578;5.456;2022-07-12T13:55:32;6.47;;;4.07;;
58621;SDS011;44389;51.578;5.456;2022-07-12T13:58:00;6.13;;;3.70;;
58621;SDS011;44389;51.578;5.456;2022-07-12T14:00:26;5.47;;;3.97;;
58621;SDS011;44389;51.578;5.456;2022-07-12T14:02:51;8.50;;;3.80;;
58621;SDS011;44389;51.578;5.456;2022-07-12T14:05:16;8.87;;;4.07;;
58621;SDS011;44389;51.578;5.456;2022-07-12T14:07:42;10.60;;;4.33;;
58621;SDS011;44389;51.578;5.456;2022-07-12T14:10:09;7.85;;;4.18;;
58621;SDS011;44389;51.578;5.456;2022-07-12T14:12:36;7.95;;;3.90;;
58621;SDS011;44389;51.578;5.456;2022-07-12T14:15:02;7.10;;;4.37;;
58621;SDS011;44389;51.578;5.456;2022-07-12T14:20:10;6.63;;;4.63;;
58621;SDS011;44389;51.578;5.456;2022-07-12T14:22:37;8.40;;;4.85;;
58621;SDS011;44389;51.578;5.456;2022-07-12T14:25:03;15.67;;;4.63;;
58621;SDS011;44389;51.578;5.456;2022-07-12T14:27:30;10.85;;;4.78;;
58621;SDS011;44389;51.578;5.456;2022-07-12T14:29:56;10.05;;;5.03;;
58621;SDS011;44389;51.578;5.456;2022-07-12T14:32:21;9.57;;;5.20;;
58621;SDS011;44389;51.578;5.456;2022-07-12T14:34:46;14.57;;;5.17;;
58621;SDS011;44389;51.578;5.456;2022-07-12T14:37:12;10.53;;;5.10;;
58621;SDS011;44389;51.578;5.456;2022-07-12T14:39:37;12.73;;;5.90;;
58621;SDS011;44389;51.578;5.456;2022-07-12T14:42:03;11.87;;;5.83;;
58621;SDS011;44389;51.578;5.456;2022-07-12T14:44:29;8.67;;;5.10;;
58621;SDS011;44389;51.578;5.456;2022-07-12T14:46:54;14.07;;;5.63;;
58621;SDS011;44389;51.578;5.456;2022-07-12T14:49:20;11.80;;;6.30;;
58621;SDS011;44389;51.578;5.456;2022-07-12T14:51:46;8.85;;;6.22;;
58621;SDS011;44389;51.578;5.456;2022-07-12T14:54:12;10.80;;;6.28;;
58621;SDS011;44389;51.578;5.456;2022-07-12T14:56:37;12.47;;;6.43;;
58621;SDS011;44389;51.578;5.456;2022-07-12T14:59:02;9.18;;;6.00;;